首页
METAR-TAF:

METAR-TAF

机场 :

二月四日国际机场

罗安达, 安哥拉

纬度: 08-51S, 经度: 013-14E, 海拔: 74米

当前天气观测

该预报发布于39分钟前的14:00 UTC
风速8节,风向西转西南
温度 30°C
湿度 70%
气压 1010 hPa
能见度10公里或以上
少量云层高于2500英尺, 积雨云.
散云层高于2300英尺

METAR: FNLU 231400Z 24008KT 9999 FEW025CB SCT023 30/24 Q1010 NOSIG

时间: 15:39 (14:39 UTC)

预报

该预报发布于3小时和39分钟前的11:00 UTC
预报有效从23日的 12点(UTC)到 24日的 18点(UTC)
风速8节,风向西
能见度10公里或以上
散云层高于2000英尺
多云层高于2300英尺
短暂存在
从 23日的 14点(UTC)到 23日的 18点(UTC)
散云层高于2000英尺
少量云层高于2300英尺, 积雨云.
成为
从 23日的 19点(UTC)到 23日的 22点(UTC)
能見度: 9000
少量云层高于2000英尺
多云层高于2200英尺

TAF: FNLU 231100Z 2312/2418 26008KT 9999 SCT020 BKN023 TEMPO 2314/2318 SCT020 FEW023CB BECMG 2319/2322 9000 FEW020 BKN022

超过4000个机场的气象观测和天气预报(METAR&TAF报告)。

可查询的气象台以黄色和红色小点在地图上表示。

将鼠标移到小点上方,可查看气象台名称。

然后点击查看天气观测和预报。

如需切换地图:点击带黑十字的绿色按钮放大地图;点击带横线的绿色按钮缩小地图;或者点击绿色箭头查看邻近地区的地图。


METAR-TAF: